createdAt,value
2023-05-08T00:00:31.458Z,100959.88
2023-05-08T00:03:35.802Z,100965.63
2023-05-08T00:06:39.306Z,100969.63
2023-05-08T00:09:42.933Z,100956.78
2023-05-08T00:12:46.340Z,100965.59
2023-05-08T00:15:50.528Z,100968.09
2023-05-08T00:18:55.006Z,100965.72
2023-05-08T00:21:59.090Z,100965.78
2023-05-08T00:25:02.879Z,100966.94
2023-05-08T00:28:06.693Z,100918.22
2023-05-08T00:31:09.883Z,100973.03
2023-05-08T00:34:14.490Z,100971.56
2023-05-08T00:37:17.743Z,100965.66
2023-05-08T00:40:22.382Z,100976.81
2023-05-08T00:43:28.409Z,100973.56
2023-05-08T00:46:33.006Z,100975.69
2023-05-08T00:49:36.375Z,100968.78
2023-05-08T00:52:40.839Z,100964.94
2023-05-08T00:55:44.182Z,100962.25
2023-05-08T00:58:48.430Z,100908.37
2023-05-08T01:01:53.014Z,100982.25
2023-05-08T01:04:56.948Z,100984.12
2023-05-08T01:08:00.131Z,100988.91
2023-05-08T01:11:29.712Z,100997.94
2023-05-08T01:14:52.651Z,100990.72
2023-05-08T01:18:19.293Z,101000.09
2023-05-08T01:21:46.014Z,101005.41
2023-05-08T01:25:10.534Z,101002.72
2023-05-08T01:28:51.013Z,101009.72
2023-05-08T01:32:20.147Z,101007.75
2023-05-08T01:35:45.636Z,101012.94
2023-05-08T01:39:07.838Z,101006.44
2023-05-08T01:42:29.459Z,101006.94
2023-05-08T01:45:40.712Z,101008.47
2023-05-08T01:48:56.485Z,100999.25
2023-05-08T01:52:06.148Z,101008.06
2023-05-08T01:55:15.793Z,101011.97
2023-05-08T01:58:20.304Z,101019.03
2023-05-08T02:01:26.002Z,101023.00
2023-05-08T02:04:34.885Z,101013.66
2023-05-08T02:07:43.480Z,101006.72
2023-05-08T02:10:50.109Z,101011.78
2023-05-08T02:13:54.750Z,101024.38
2023-05-08T02:17:00.839Z,101020.69
2023-05-08T02:20:05.428Z,101016.13
2023-05-08T02:23:09.515Z,101014.25
2023-05-08T02:26:15.846Z,101024.06
2023-05-08T02:29:22.576Z,101022.03
2023-05-08T02:32:27.075Z,101026.97
2023-05-08T02:35:31.693Z,101033.16
2023-05-08T02:38:37.785Z,101026.50
2023-05-08T02:41:42.563Z,101027.84
2023-05-08T02:44:46.234Z,101032.97
2023-05-08T02:48:05.189Z,101028.19
2023-05-08T02:51:33.982Z,101030.47
2023-05-08T02:54:51.587Z,101031.91
2023-05-08T02:58:06.192Z,101029.56
2023-05-08T03:01:33.550Z,101025.03
2023-05-08T03:04:46.556Z,101030.63
2023-05-08T03:07:54.111Z,101040.16
2023-05-08T03:11:01.843Z,101029.22
2023-05-08T03:14:10.593Z,101030.69
2023-05-08T03:17:16.841Z,101032.06
2023-05-08T03:20:22.935Z,101026.22
2023-05-08T03:23:29.639Z,101030.50
2023-05-08T03:26:33.544Z,101038.50
2023-05-08T03:29:40.069Z,101036.63
2023-05-08T03:32:47.043Z,101041.00
2023-05-08T03:35:51.685Z,101042.69
2023-05-08T03:38:55.443Z,101045.09
2023-05-08T03:42:00.738Z,101042.16
2023-05-08T03:45:07.343Z,101042.09
2023-05-08T03:48:11.629Z,101046.28
2023-05-08T03:51:16.130Z,101041.59
2023-05-08T03:54:19.620Z,101047.59
2023-05-08T03:57:31.559Z,101044.47
2023-05-08T04:00:48.026Z,101044.38
2023-05-08T04:04:08.041Z,101038.59
2023-05-08T04:07:22.726Z,101045.25
2023-05-08T04:10:32.612Z,101054.94
2023-05-08T04:13:43.308Z,101064.66
2023-05-08T04:16:56.644Z,101060.94
2023-05-08T04:20:05.716Z,101067.13
2023-05-08T04:23:11.482Z,101065.16
2023-05-08T04:26:17.319Z,101075.75
2023-05-08T04:29:22.325Z,101077.34
2023-05-08T04:32:28.019Z,101011.16
2023-05-08T04:35:31.779Z,101088.59
2023-05-08T04:38:39.275Z,101094.66
2023-05-08T04:41:43.056Z,101100.81
2023-05-08T04:44:47.772Z,101104.28
2023-05-08T04:47:52.325Z,101110.16
2023-05-08T04:50:55.764Z,101108.81
2023-05-08T04:53:59.372Z,101118.47
2023-05-08T04:57:03.892Z,101121.94
2023-05-08T05:00:08.159Z,101112.97
2023-05-08T05:03:11.811Z,101125.78
2023-05-08T05:06:15.414Z,101119.41
2023-05-08T05:09:18.870Z,101130.75
2023-05-08T05:12:22.671Z,101128.59
2023-05-08T05:15:26.102Z,101143.31
2023-05-08T05:18:29.576Z,101144.19
2023-05-08T05:21:32.875Z,101135.03
2023-05-08T05:24:36.670Z,101140.03
2023-05-08T05:27:39.957Z,101149.00
2023-05-08T05:30:47.562Z,101149.09
2023-05-08T05:33:51.063Z,101124.56
2023-05-08T05:36:55.552Z,101143.84
2023-05-08T05:40:01.211Z,101143.38
2023-05-08T05:43:07.088Z,101156.50
2023-05-08T05:46:11.993Z,101148.63
2023-05-08T05:49:15.667Z,101145.97
2023-05-08T05:52:19.537Z,101146.22
2023-05-08T05:55:23.025Z,101150.50
2023-05-08T05:58:26.244Z,101148.91
2023-05-08T06:01:30.026Z,101163.69
2023-05-08T06:04:33.773Z,101153.62
2023-05-08T06:07:36.843Z,101157.69
2023-05-08T06:10:40.288Z,101146.84
2023-05-08T06:13:44.527Z,101152.63
2023-05-08T06:16:48.268Z,101149.88
2023-05-08T06:19:56.090Z,101158.00
2023-05-08T06:22:59.532Z,101158.75
2023-05-08T06:26:02.733Z,101161.38
2023-05-08T06:29:06.332Z,101154.03
2023-05-08T06:32:09.399Z,101154.59
2023-05-08T06:35:13.419Z,101136.38
2023-05-08T06:38:17.382Z,101154.47
2023-05-08T06:41:22.348Z,101150.75
2023-05-08T06:44:25.445Z,101163.19
2023-05-08T06:47:30.051Z,101160.09
2023-05-08T06:50:33.450Z,101165.09
2023-05-08T06:53:36.833Z,101168.03
2023-05-08T06:56:39.855Z,101174.94
2023-05-08T06:59:43.677Z,101172.37
2023-05-08T07:02:46.835Z,101168.56
2023-05-08T07:05:50.415Z,101169.84
2023-05-08T07:08:54.148Z,101166.63
2023-05-08T07:11:57.679Z,101170.41
2023-05-08T07:15:05.516Z,101158.69
2023-05-08T07:18:11.903Z,101163.94
2023-05-08T07:21:16.111Z,101160.19
2023-05-08T07:24:19.637Z,101156.91
2023-05-08T07:27:22.909Z,101166.63
2023-05-08T07:30:26.496Z,101161.94
2023-05-08T07:33:29.556Z,101152.53
2023-05-08T07:36:33.215Z,101155.75
2023-05-08T07:39:36.549Z,101151.19
2023-05-08T07:42:44.964Z,101152.56
2023-05-08T07:45:49.854Z,101155.75
2023-05-08T07:48:53.338Z,101164.62
2023-05-08T07:51:56.956Z,101157.81
2023-05-08T07:55:00.428Z,101162.84
2023-05-08T07:58:03.686Z,101159.75
2023-05-08T08:01:07.065Z,101171.12
2023-05-08T08:04:10.469Z,101171.47
2023-05-08T08:07:14.048Z,101161.31
2023-05-08T08:10:17.658Z,101145.56
2023-05-08T08:13:21.127Z,101151.63
2023-05-08T08:16:25.049Z,101155.03
2023-05-08T08:19:33.977Z,101153.28
2023-05-08T08:22:38.184Z,101158.41
2023-05-08T08:25:41.807Z,101148.53
2023-05-08T08:28:45.292Z,101153.62
2023-05-08T08:31:48.424Z,101156.50
2023-05-08T08:34:52.059Z,101154.91
2023-05-08T08:37:56.546Z,101147.91
2023-05-08T08:41:00.521Z,101152.78
2023-05-08T08:44:03.849Z,101137.44
2023-05-08T08:47:15.393Z,101137.72
2023-05-08T08:50:20.276Z,101134.34
2023-05-08T08:53:27.676Z,101139.69
2023-05-08T08:56:33.435Z,101130.09
2023-05-08T08:59:41.266Z,101140.19
2023-05-08T09:02:44.517Z,101137.47
2023-05-08T09:05:49.522Z,101151.87
2023-05-08T09:08:56.911Z,101149.53
2023-05-08T09:12:00.697Z,101130.38
2023-05-08T09:15:04.141Z,101142.97
2023-05-08T09:18:08.180Z,101143.06
2023-05-08T09:21:13.127Z,101137.38
2023-05-08T09:24:19.303Z,101124.59
2023-05-08T09:27:24.585Z,101106.41
2023-05-08T09:30:28.360Z,101121.31
2023-05-08T09:33:31.907Z,101119.16
2023-05-08T09:36:35.705Z,101122.31
2023-05-08T09:39:43.304Z,101119.59
2023-05-08T09:42:48.152Z,101121.41
2023-05-08T09:45:51.946Z,101118.94
2023-05-08T09:48:59.037Z,101120.75
2023-05-08T09:52:02.543Z,101108.03
2023-05-08T09:55:13.648Z,101113.91
2023-05-08T09:58:16.880Z,101109.88
2023-05-08T10:01:35.191Z,101106.00
2023-05-08T10:04:38.949Z,101106.44
2023-05-08T10:07:42.090Z,101110.06
2023-05-08T10:10:46.091Z,101099.00
2023-05-08T10:13:49.444Z,101105.53
2023-05-08T10:16:54.580Z,101107.91
2023-05-08T10:20:06.332Z,101099.03
2023-05-08T10:23:11.633Z,101104.25
2023-05-08T10:26:19.386Z,101099.47
2023-05-08T10:29:32.718Z,101082.16
2023-05-08T10:32:42.427Z,101073.91
2023-05-08T10:35:47.475Z,101078.72
2023-05-08T10:38:52.053Z,101067.97
2023-05-08T10:41:55.713Z,101074.50
2023-05-08T10:44:59.749Z,101084.84
2023-05-08T10:48:22.668Z,101071.31
2023-05-08T10:51:44.351Z,101073.41
2023-05-08T10:54:53.987Z,101073.00
2023-05-08T10:58:30.907Z,101055.13
2023-05-08T11:01:40.221Z,101062.25
2023-05-08T11:04:44.517Z,101057.75
2023-05-08T11:07:59.611Z,101070.78
2023-05-08T11:11:17.287Z,101066.16
2023-05-08T11:14:22.966Z,101064.06
2023-05-08T11:17:26.569Z,101048.19
2023-05-08T11:20:54.506Z,101065.69
2023-05-08T11:23:58.309Z,101062.75
2023-05-08T11:27:04.093Z,101063.56
2023-05-08T11:30:33.066Z,101049.56
2023-05-08T11:33:41.365Z,101048.16
2023-05-08T11:37:02.164Z,101041.81
2023-05-08T11:40:43.786Z,101048.69
2023-05-08T11:43:59.970Z,101056.28
2023-05-08T11:47:04.547Z,101044.22
2023-05-08T11:50:09.809Z,101041.19
2023-05-08T11:53:13.701Z,101039.06
2023-05-08T11:56:17.477Z,101043.41
2023-05-08T11:59:22.172Z,101049.72
2023-05-08T12:02:42.761Z,101053.97
2023-05-08T12:05:47.659Z,101049.34
2023-05-08T12:08:50.773Z,101048.22
2023-05-08T12:11:58.117Z,101050.63
2023-05-08T12:15:01.549Z,101044.19
2023-05-08T12:18:05.633Z,101043.66
2023-05-08T12:21:08.731Z,101040.66
2023-05-08T12:24:13.717Z,101037.37
2023-05-08T12:27:18.033Z,101041.63
2023-05-08T12:30:21.658Z,101033.72
2023-05-08T12:33:25.765Z,101037.44
2023-05-08T12:36:29.210Z,101041.91
2023-05-08T12:39:37.718Z,101019.50
2023-05-08T12:42:51.248Z,101035.50
2023-05-08T12:45:55.588Z,101032.25
2023-05-08T12:49:07.957Z,101031.53
2023-05-08T12:52:16.477Z,101037.47
2023-05-08T12:55:28.164Z,101031.84
2023-05-08T12:58:33.370Z,101034.97
2023-05-08T13:01:37.054Z,101027.75
2023-05-08T13:04:40.431Z,101034.53
2023-05-08T13:07:44.011Z,101043.78
2023-05-08T13:10:52.029Z,101038.94
2023-05-08T13:13:55.824Z,101036.78
2023-05-08T13:17:00.306Z,101039.94
2023-05-08T13:20:06.168Z,101035.53
2023-05-08T13:23:10.764Z,101037.97
2023-05-08T13:26:14.256Z,101041.91
2023-05-08T13:29:17.405Z,101036.19
2023-05-08T13:32:21.675Z,101032.53
2023-05-08T13:35:28.519Z,101040.66
2023-05-08T13:38:32.379Z,101030.50
2023-05-08T13:41:35.446Z,101032.19
2023-05-08T13:44:38.950Z,101023.87
2023-05-08T13:47:43.063Z,101036.72
2023-05-08T13:50:46.599Z,101027.37
2023-05-08T13:53:49.836Z,101031.53
2023-05-08T13:56:56.656Z,101016.50
2023-05-08T13:59:59.752Z,101034.41
2023-05-08T14:03:03.712Z,101038.41
2023-05-08T14:06:07.205Z,101036.38
2023-05-08T14:09:10.398Z,101027.88
2023-05-08T14:12:14.082Z,101035.09
2023-05-08T14:15:17.528Z,101032.47
2023-05-08T14:18:21.015Z,101048.91
2023-05-08T14:21:24.605Z,101036.00
2023-05-08T14:24:28.443Z,101038.75
2023-05-08T14:27:31.603Z,101038.16
2023-05-08T14:30:36.264Z,101049.19
2023-05-08T14:33:39.545Z,101041.84
2023-05-08T14:36:43.679Z,101052.38
2023-05-08T14:39:46.956Z,101056.59
2023-05-08T14:42:50.534Z,101060.13
2023-05-08T14:45:53.763Z,101057.87
2023-05-08T14:48:57.205Z,101078.66
2023-05-08T14:52:00.272Z,101060.87
2023-05-08T14:55:04.423Z,101062.22
2023-05-08T14:58:08.016Z,101062.50
2023-05-08T15:01:11.469Z,101066.12
2023-05-08T15:04:14.818Z,101068.75
2023-05-08T15:07:18.423Z,101066.88
2023-05-08T15:10:21.712Z,101073.56
2023-05-08T15:13:25.132Z,101072.88
2023-05-08T15:16:29.729Z,101065.03
2023-05-08T15:19:33.431Z,101078.63
2023-05-08T15:22:37.258Z,101076.12
2023-05-08T15:25:40.681Z,101082.75
2023-05-08T15:28:43.991Z,101078.00
2023-05-08T15:31:47.538Z,101082.62
2023-05-08T15:34:51.280Z,101092.22
2023-05-08T15:37:54.817Z,101086.00
2023-05-08T15:40:57.866Z,101099.28
2023-05-08T15:44:01.266Z,101094.06
2023-05-08T15:47:04.414Z,101096.03
2023-05-08T15:50:08.055Z,101100.75
2023-05-08T15:53:11.379Z,101105.66
2023-05-08T15:56:14.817Z,101105.41
2023-05-08T15:59:18.065Z,101093.03
2023-05-08T16:02:21.415Z,101104.22
2023-05-08T16:05:25.030Z,101101.34
2023-05-08T16:08:30.258Z,101107.81
2023-05-08T16:11:33.912Z,101106.50
2023-05-08T16:14:37.149Z,101109.59
2023-05-08T16:17:40.617Z,101114.91
2023-05-08T16:20:44.096Z,101103.31
2023-05-08T16:23:47.823Z,101102.66
2023-05-08T16:26:51.047Z,101104.00
2023-05-08T16:29:54.630Z,101113.31
2023-05-08T16:32:57.862Z,101115.84
2023-05-08T16:36:01.301Z,101117.81
2023-05-08T16:39:04.489Z,101124.41
2023-05-08T16:42:08.506Z,101123.59
2023-05-08T16:45:12.639Z,101129.16
2023-05-08T16:48:17.377Z,101133.75
2023-05-08T16:51:20.855Z,101129.72
2023-05-08T16:54:24.577Z,101153.25
2023-05-08T16:57:28.030Z,101159.75
2023-05-08T17:00:31.556Z,101171.69
2023-05-08T17:03:34.662Z,101176.66
2023-05-08T17:06:39.805Z,101187.59
2023-05-08T17:09:43.414Z,101179.28
2023-05-08T17:12:46.785Z,101187.38
2023-05-08T17:15:50.138Z,101190.97
2023-05-08T17:18:53.616Z,101183.97
2023-05-08T17:21:58.975Z,101199.16
2023-05-08T17:25:10.623Z,101198.56
2023-05-08T17:28:13.836Z,101201.31
2023-05-08T17:31:18.201Z,101198.81
2023-05-08T17:34:22.917Z,101204.97
2023-05-08T17:37:26.782Z,101209.41
2023-05-08T17:40:30.150Z,101226.50
2023-05-08T17:43:35.423Z,101225.66
2023-05-08T17:46:38.611Z,101226.78
2023-05-08T17:49:42.640Z,101236.78
2023-05-08T17:52:45.890Z,101241.97
2023-05-08T17:55:49.965Z,101242.69
2023-05-08T17:58:53.296Z,101239.63
2023-05-08T18:01:57.130Z,101253.63
2023-05-08T18:05:02.075Z,101258.81
2023-05-08T18:08:05.522Z,101255.16
2023-05-08T18:11:17.564Z,101273.31
2023-05-08T18:14:20.814Z,101278.88
2023-05-08T18:17:25.697Z,101284.78
2023-05-08T18:20:29.003Z,101294.19
2023-05-08T18:23:32.611Z,101301.06
2023-05-08T18:26:35.763Z,101300.81
2023-05-08T18:29:39.375Z,101317.25
2023-05-08T18:32:42.983Z,101325.13
2023-05-08T18:35:47.072Z,101329.88
2023-05-08T18:38:50.343Z,101327.53
2023-05-08T18:41:54.558Z,101278.53
2023-05-08T18:44:58.296Z,101322.81
2023-05-08T18:48:02.105Z,101350.31
2023-05-08T18:51:06.614Z,101364.91
2023-05-08T18:54:10.834Z,101376.94
2023-05-08T18:57:14.447Z,101375.00
2023-05-08T19:00:19.349Z,101320.69
2023-05-08T19:03:24.442Z,101369.09
2023-05-08T19:06:28.981Z,101360.97
2023-05-08T19:09:34.165Z,101389.22
2023-05-08T19:12:39.228Z,101382.63
2023-05-08T19:15:42.709Z,101389.63
2023-05-08T19:18:47.898Z,101392.59
2023-05-08T19:21:52.486Z,101371.78
2023-05-08T19:24:56.327Z,101385.63
2023-05-08T19:27:59.825Z,101358.47
2023-05-08T19:31:03.755Z,101391.25
2023-05-08T19:34:07.593Z,101393.47
2023-05-08T19:37:11.272Z,101389.78
2023-05-08T19:40:16.463Z,101394.50
2023-05-08T19:43:20.215Z,101390.25
2023-05-08T19:46:23.656Z,101387.56
2023-05-08T19:49:27.187Z,101400.31
2023-05-08T19:52:30.708Z,101387.06
2023-05-08T19:55:34.390Z,101402.44
2023-05-08T19:58:37.776Z,101403.91
2023-05-08T20:01:41.784Z,101406.94
2023-05-08T20:07:51.591Z,101404.75
2023-05-08T20:10:55.813Z,101405.56
2023-05-08T20:13:59.187Z,101398.66
2023-05-08T20:17:03.131Z,101401.69
2023-05-08T20:20:06.974Z,101388.63
2023-05-08T20:23:10.973Z,101408.44
2023-05-08T20:26:13.951Z,101394.06
2023-05-08T20:29:17.349Z,101400.16
2023-05-08T20:32:20.621Z,101390.13
2023-05-08T20:35:24.052Z,101402.00
2023-05-08T20:38:27.256Z,101405.50
2023-05-08T20:41:30.924Z,101405.63
2023-05-08T20:44:34.325Z,101408.16
2023-05-08T20:47:37.829Z,101366.47
2023-05-08T20:50:40.965Z,101416.37
2023-05-08T20:53:44.529Z,101416.66
2023-05-08T20:56:48.924Z,101411.53
2023-05-08T20:59:52.712Z,101411.84
2023-05-08T21:02:56.286Z,101415.78
2023-05-08T21:05:59.766Z,101411.34
2023-05-08T21:09:04.107Z,101414.16
2023-05-08T21:12:09.977Z,101404.56
2023-05-08T21:15:13.413Z,101400.66
2023-05-08T21:18:17.553Z,101354.44
2023-05-08T21:21:21.058Z,101407.69
2023-05-08T21:24:25.807Z,101408.59
2023-05-08T21:27:28.980Z,101410.31
2023-05-08T21:30:32.405Z,101398.41
2023-05-08T21:33:35.776Z,101406.56
2023-05-08T21:36:39.271Z,101408.50
2023-05-08T21:39:42.509Z,101371.34
2023-05-08T21:42:46.198Z,101400.72
2023-05-08T21:45:49.311Z,101410.09
2023-05-08T21:48:54.017Z,101406.94
2023-05-08T21:51:59.109Z,101403.53
2023-05-08T21:55:08.421Z,101401.72
2023-05-08T21:58:11.855Z,101394.28
2023-05-08T22:01:16.293Z,101380.75
2023-05-08T22:04:19.897Z,101400.94
2023-05-08T22:07:24.611Z,101390.88
2023-05-08T22:10:28.971Z,101348.44
2023-05-08T22:13:32.136Z,101366.44
2023-05-08T22:16:37.537Z,101395.59
2023-05-08T22:19:40.804Z,101385.28
2023-05-08T22:22:44.482Z,101398.75
2023-05-08T22:25:47.827Z,101393.66
2023-05-08T22:28:51.329Z,101341.94
2023-05-08T22:31:54.419Z,101393.41
2023-05-08T22:34:57.746Z,101397.69
2023-05-08T22:38:00.876Z,101390.72
2023-05-08T22:41:05.974Z,101394.31
2023-05-08T22:44:09.372Z,101360.56
2023-05-08T22:47:13.784Z,101385.66
2023-05-08T22:50:17.376Z,101395.22
2023-05-08T22:53:21.540Z,101391.09
2023-05-08T22:56:24.799Z,101381.81
2023-05-08T22:59:28.885Z,101390.75
2023-05-08T23:02:33.334Z,101366.19
2023-05-08T23:05:36.997Z,101396.28
2023-05-08T23:08:40.245Z,101387.41
2023-05-08T23:11:43.809Z,101399.44
2023-05-08T23:14:47.091Z,101394.50
2023-05-08T23:17:50.540Z,101400.19
2023-05-08T23:20:53.658Z,101390.53
2023-05-08T23:23:56.943Z,101381.06
2023-05-08T23:27:00.004Z,101352.53
2023-05-08T23:30:03.713Z,101386.75
2023-05-08T23:33:08.699Z,101387.78
2023-05-08T23:36:12.572Z,101372.66
2023-05-08T23:39:15.760Z,101387.31
2023-05-08T23:42:20.776Z,101352.31
2023-05-08T23:45:24.074Z,101314.19
2023-05-08T23:48:27.540Z,101371.78
2023-05-08T23:51:30.634Z,101346.88
2023-05-08T23:54:34.032Z,101357.69
2023-05-08T23:57:37.250Z,101366.03
